createdAt,value
2019-05-30T00:01:01.902Z,8.75
2019-05-30T00:03:31.570Z,8.64
2019-05-30T00:06:02.355Z,8.61
2019-05-30T00:08:31.996Z,8.57
2019-05-30T00:11:02.661Z,8.51
2019-05-30T00:13:33.337Z,8.47
2019-05-30T00:16:03.049Z,8.47
2019-05-30T00:18:32.485Z,8.50
2019-05-30T00:21:02.911Z,8.49
2019-05-30T00:23:32.445Z,8.50
2019-05-30T00:26:03.361Z,8.53
2019-05-30T00:28:32.919Z,8.53
2019-05-30T00:31:02.609Z,8.40
2019-05-30T00:33:32.067Z,8.67
2019-05-30T00:36:01.865Z,8.68
2019-05-30T00:38:31.318Z,8.70
2019-05-30T00:41:01.995Z,8.63
2019-05-30T00:43:31.590Z,8.62
2019-05-30T00:46:02.135Z,8.64
2019-05-30T00:48:31.646Z,8.54
2019-05-30T00:51:02.576Z,8.49
2019-05-30T00:53:32.548Z,8.45
2019-05-30T00:56:03.090Z,8.33
2019-05-30T00:58:32.687Z,8.25
2019-05-30T01:01:03.072Z,8.62
2019-05-30T01:03:32.638Z,8.69
2019-05-30T01:06:02.980Z,8.35
2019-05-30T01:08:32.484Z,8.18
2019-05-30T01:11:03.148Z,8.12
2019-05-30T01:13:32.810Z,8.14
2019-05-30T01:16:03.205Z,8.08
2019-05-30T01:18:32.781Z,8.05
2019-05-30T01:21:03.269Z,8.04
2019-05-30T01:23:32.830Z,8.03
2019-05-30T01:26:03.432Z,8.04
2019-05-30T01:28:32.994Z,8.40
2019-05-30T01:31:05.575Z,8.61
2019-05-30T01:33:33.728Z,8.41
2019-05-30T01:36:03.767Z,8.19
2019-05-30T01:38:33.355Z,8.10
2019-05-30T01:41:04.153Z,8.07
2019-05-30T01:43:33.711Z,8.01
2019-05-30T01:46:04.247Z,8.28
2019-05-30T01:48:33.804Z,8.44
2019-05-30T01:51:04.489Z,8.37
2019-05-30T01:53:34.044Z,8.21
2019-05-30T01:56:04.720Z,8.34
2019-05-30T01:58:34.402Z,8.19
2019-05-30T02:01:18.949Z,7.87
2019-05-30T02:03:35.151Z,7.73
2019-05-30T02:06:05.560Z,7.61
2019-05-30T02:08:35.149Z,7.51
2019-05-30T02:11:05.483Z,7.44
2019-05-30T02:13:35.008Z,7.36
2019-05-30T02:16:05.698Z,7.27
2019-05-30T02:18:35.359Z,7.21
2019-05-30T02:21:05.860Z,7.13
2019-05-30T02:23:35.424Z,7.13
2019-05-30T02:26:06.201Z,7.08
2019-05-30T02:28:35.789Z,7.02
2019-05-30T02:31:06.983Z,7.00
2019-05-30T02:33:36.616Z,6.96
2019-05-30T02:36:07.856Z,6.92
2019-05-30T02:38:37.381Z,6.87
2019-05-30T02:41:08.123Z,6.85
2019-05-30T02:43:38.140Z,6.81
2019-05-30T02:46:08.427Z,6.88
2019-05-30T02:48:57.496Z,6.66
2019-05-30T02:51:10.829Z,6.58
2019-05-30T02:53:42.105Z,6.50
2019-05-30T02:56:12.725Z,6.42
2019-05-30T02:58:42.376Z,6.41
2019-05-30T03:01:14.502Z,6.33
2019-05-30T03:03:43.812Z,6.34
2019-05-30T03:06:14.544Z,6.37
2019-05-30T03:08:44.104Z,6.37
2019-05-30T03:11:15.569Z,6.65
2019-05-30T03:13:45.013Z,6.82
2019-05-30T03:16:15.586Z,6.50
2019-05-30T03:18:45.088Z,6.40
2019-05-30T03:21:15.644Z,6.32
2019-05-30T03:23:45.499Z,6.27
2019-05-30T03:26:16.094Z,6.18
2019-05-30T03:28:45.925Z,6.14
2019-05-30T03:31:27.720Z,6.08
2019-05-30T03:33:49.030Z,6.07
2019-05-30T03:36:28.279Z,6.06
2019-05-30T03:38:49.817Z,6.12
2019-05-30T03:41:19.661Z,6.22
2019-05-30T03:43:49.223Z,6.26
2019-05-30T03:46:25.693Z,6.26
2019-05-30T03:48:58.290Z,6.26
2019-05-30T03:51:29.712Z,6.24
2019-05-30T03:54:00.749Z,6.56
2019-05-30T03:56:49.606Z,6.41
2019-05-30T03:59:29.778Z,6.42
2019-05-30T04:02:19.015Z,6.46
2019-05-30T04:05:06.674Z,6.45
2019-05-30T04:07:41.257Z,6.75
2019-05-30T04:10:11.570Z,6.73
2019-05-30T04:12:48.954Z,6.63
2019-05-30T04:15:35.287Z,6.66
2019-05-30T04:18:04.773Z,6.88
2019-05-30T04:20:34.325Z,7.19
2019-05-30T04:23:03.829Z,7.00
2019-05-30T04:25:33.315Z,7.06
2019-05-30T04:28:02.812Z,7.06
2019-05-30T04:30:32.555Z,7.13
2019-05-30T04:33:17.151Z,7.20
2019-05-30T04:35:33.252Z,7.45
2019-05-30T04:38:02.763Z,7.37
2019-05-30T04:40:32.264Z,7.50
2019-05-30T04:43:01.763Z,7.51
2019-05-30T04:45:31.240Z,7.51
2019-05-30T04:48:00.740Z,7.79
2019-05-30T04:50:30.221Z,7.86
2019-05-30T04:52:59.703Z,7.91
2019-05-30T04:55:29.270Z,8.03
2019-05-30T04:57:58.757Z,8.31
2019-05-30T05:00:28.403Z,8.38
2019-05-30T05:02:57.880Z,8.18
2019-05-30T05:05:27.342Z,8.43
2019-05-30T05:07:56.834Z,8.39
2019-05-30T05:10:27.087Z,8.52
2019-05-30T05:12:56.886Z,8.61
2019-05-30T05:15:26.420Z,8.43
2019-05-30T05:17:55.913Z,8.68
2019-05-30T05:20:25.385Z,8.69
2019-05-30T05:22:54.879Z,8.81
2019-05-30T05:25:25.122Z,9.05
2019-05-30T05:27:54.609Z,9.18
2019-05-30T05:30:24.469Z,9.57
2019-05-30T05:32:53.935Z,9.63
2019-05-30T05:35:23.412Z,9.36
2019-05-30T05:37:53.246Z,9.45
2019-05-30T05:40:22.721Z,10.59
2019-05-30T05:42:52.283Z,11.58
2019-05-30T05:45:22.824Z,12.68
2019-05-30T05:47:52.388Z,12.52
2019-05-30T05:50:22.551Z,12.89
2019-05-30T05:52:52.121Z,13.70
2019-05-30T05:55:22.831Z,14.66
2019-05-30T05:57:52.479Z,15.13
2019-05-30T06:00:23.293Z,15.53
2019-05-30T06:02:53.031Z,16.79
2019-05-30T06:05:22.514Z,15.55
2019-05-30T06:07:52.017Z,14.97
2019-05-30T06:10:21.885Z,15.10
2019-05-30T06:12:51.455Z,16.63
2019-05-30T06:15:20.950Z,18.80
2019-05-30T06:17:50.445Z,19.28
2019-05-30T06:20:21.242Z,20.15
2019-05-30T06:22:50.760Z,20.42
2019-05-30T06:25:22.323Z,20.25
2019-05-30T06:27:51.622Z,19.24
2019-05-30T06:30:22.434Z,18.79
2019-05-30T06:32:51.866Z,20.18
2019-05-30T06:35:21.843Z,20.49
2019-05-30T06:37:52.400Z,21.43
2019-05-30T06:40:23.623Z,20.90
2019-05-30T06:42:53.204Z,16.53
2019-05-30T06:45:24.059Z,14.71
2019-05-30T06:47:54.127Z,13.80
2019-05-30T06:50:24.723Z,13.28
2019-05-30T06:52:54.174Z,13.02
2019-05-30T06:55:23.680Z,13.58
2019-05-30T06:57:54.416Z,14.10
2019-05-30T07:00:26.446Z,15.25
2019-05-30T07:02:56.061Z,14.73
2019-05-30T07:05:27.639Z,14.92
2019-05-30T07:07:56.831Z,14.41
2019-05-30T07:10:26.836Z,14.74
2019-05-30T07:12:56.333Z,14.94
2019-05-30T07:15:27.143Z,16.03
2019-05-30T07:17:56.856Z,18.87
2019-05-30T07:20:27.475Z,19.84
2019-05-30T07:22:56.991Z,19.54
2019-05-30T07:25:27.777Z,16.90
2019-05-30T07:27:57.314Z,15.71
2019-05-30T07:30:27.950Z,20.24
2019-05-30T07:32:57.482Z,22.22
2019-05-30T07:35:27.950Z,22.94
2019-05-30T07:37:57.446Z,23.08
2019-05-30T07:40:28.613Z,24.76
2019-05-30T07:42:58.153Z,25.65
2019-05-30T07:45:28.921Z,26.07
2019-05-30T07:47:58.461Z,25.33
2019-05-30T07:50:28.382Z,25.26
2019-05-30T07:52:57.915Z,19.99
2019-05-30T07:55:27.388Z,19.07
2019-05-30T07:57:56.886Z,22.70
2019-05-30T08:00:27.396Z,24.80
2019-05-30T08:02:56.956Z,23.63
2019-05-30T08:05:26.751Z,22.82
2019-05-30T08:07:56.383Z,24.83
2019-05-30T08:10:25.902Z,25.50
2019-05-30T08:12:55.410Z,24.32
2019-05-30T08:15:25.635Z,25.45
2019-05-30T08:17:55.107Z,23.57
2019-05-30T08:20:24.595Z,22.57
2019-05-30T08:22:54.076Z,24.38
2019-05-30T08:25:23.572Z,24.37
2019-05-30T08:27:53.066Z,25.66
2019-05-30T08:30:23.068Z,20.78
2019-05-30T08:32:52.537Z,19.39
2019-05-30T08:35:22.206Z,18.17
2019-05-30T08:37:51.711Z,17.40
2019-05-30T08:40:22.153Z,16.31
2019-05-30T08:42:51.643Z,16.00
2019-05-30T08:45:22.173Z,15.70
2019-05-30T08:47:51.683Z,15.59
2019-05-30T08:50:21.766Z,15.73
2019-05-30T08:52:51.253Z,15.44
2019-05-30T08:55:20.808Z,15.04
2019-05-30T08:57:52.685Z,14.89
2019-05-30T09:00:22.993Z,15.16
2019-05-30T09:02:52.585Z,15.33
2019-05-30T09:05:22.147Z,15.44
2019-05-30T09:07:52.131Z,15.51
2019-05-30T09:10:21.768Z,15.92
2019-05-30T09:12:51.325Z,16.09
2019-05-30T09:15:22.143Z,15.95
2019-05-30T09:17:52.245Z,15.85
2019-05-30T09:20:22.228Z,15.80
2019-05-30T09:22:51.714Z,15.82
2019-05-30T09:25:22.953Z,16.01
2019-05-30T09:27:52.643Z,15.94
2019-05-30T09:30:22.367Z,15.84
2019-05-30T09:32:51.914Z,15.89
2019-05-30T09:35:21.732Z,15.44
2019-05-30T09:37:51.208Z,15.40
2019-05-30T09:40:23.995Z,15.50
2019-05-30T09:42:53.482Z,15.28
2019-05-30T09:45:23.800Z,14.79
2019-05-30T09:47:53.277Z,15.25
2019-05-30T09:50:22.958Z,15.41
2019-05-30T09:52:52.513Z,15.38
2019-05-30T09:55:22.438Z,15.08
2019-05-30T09:57:53.152Z,15.69
2019-05-30T10:00:24.455Z,15.70
2019-05-30T10:02:53.970Z,15.43
2019-05-30T10:05:24.821Z,15.50
2019-05-30T10:07:54.468Z,15.33
2019-05-30T10:10:24.203Z,15.39
2019-05-30T10:12:53.685Z,15.84
2019-05-30T10:15:23.590Z,16.32
2019-05-30T10:17:54.464Z,16.91
2019-05-30T10:20:24.384Z,16.15
2019-05-30T10:22:54.007Z,17.55
2019-05-30T10:25:23.857Z,17.75
2019-05-30T10:27:54.861Z,17.67
2019-05-30T10:30:26.320Z,18.17
2019-05-30T10:32:56.071Z,17.70
2019-05-30T10:35:29.456Z,17.64
2019-05-30T10:37:58.148Z,18.01
2019-05-30T10:40:27.967Z,19.24
2019-05-30T10:42:57.444Z,18.99
2019-05-30T10:45:28.703Z,18.38
2019-05-30T10:47:58.177Z,19.19
2019-05-30T10:50:28.143Z,21.20
2019-05-30T10:52:57.628Z,21.04
2019-05-30T10:55:28.133Z,22.06
2019-05-30T10:57:59.530Z,20.28
2019-05-30T11:00:55.896Z,19.78
2019-05-30T11:03:27.974Z,18.22
2019-05-30T11:06:19.808Z,18.16
2019-05-30T11:08:52.769Z,18.05
2019-05-30T11:11:22.328Z,18.18
2019-05-30T11:13:53.189Z,18.55
2019-05-30T11:16:23.309Z,20.82
2019-05-30T11:18:54.250Z,26.86
2019-05-30T11:21:23.955Z,28.38
2019-05-30T11:23:54.401Z,24.29
2019-05-30T11:26:23.923Z,22.47
2019-05-30T11:28:54.670Z,20.88
2019-05-30T11:31:24.290Z,22.16
2019-05-30T11:33:54.978Z,21.17
2019-05-30T11:36:24.547Z,20.22
2019-05-30T11:38:55.264Z,20.41
2019-05-30T11:41:24.795Z,21.17
2019-05-30T11:43:55.576Z,23.16
2019-05-30T11:46:25.128Z,26.28
2019-05-30T11:48:55.670Z,28.41
2019-05-30T11:51:25.162Z,23.99
2019-05-30T11:53:55.821Z,23.60
2019-05-30T11:56:25.326Z,26.40
2019-05-30T11:58:55.924Z,28.48
2019-05-30T12:01:25.475Z,27.93
2019-05-30T12:03:54.953Z,24.77
2019-05-30T12:06:24.612Z,21.86
2019-05-30T12:08:54.730Z,25.33
2019-05-30T12:11:24.262Z,23.03
2019-05-30T12:13:53.738Z,21.28
2019-05-30T12:16:23.236Z,21.75
2019-05-30T12:18:53.958Z,20.84
2019-05-30T12:21:23.498Z,22.09
2019-05-30T12:23:54.458Z,22.23
2019-05-30T12:26:24.025Z,23.26
2019-05-30T12:28:54.087Z,21.60
2019-05-30T12:31:23.754Z,20.50
2019-05-30T12:33:54.248Z,19.51
2019-05-30T12:36:23.739Z,18.80
2019-05-30T12:38:54.327Z,18.34
2019-05-30T12:41:23.801Z,18.46
2019-05-30T12:43:53.312Z,18.13
2019-05-30T12:46:22.794Z,18.14
2019-05-30T12:48:53.295Z,18.06
2019-05-30T12:51:22.897Z,18.29
2019-05-30T12:53:52.366Z,18.28
2019-05-30T12:56:21.857Z,17.98
2019-05-30T12:58:51.367Z,18.34
2019-05-30T13:01:20.870Z,18.33
2019-05-30T13:03:50.420Z,18.14
2019-05-30T13:06:19.908Z,18.53
2019-05-30T13:08:49.396Z,18.53
2019-05-30T13:11:18.896Z,19.16
2019-05-30T13:13:48.389Z,18.92
2019-05-30T13:16:17.894Z,19.35
2019-05-30T13:18:47.386Z,19.58
2019-05-30T13:21:16.884Z,19.24
2019-05-30T13:23:46.373Z,20.41
2019-05-30T13:26:15.837Z,21.46
2019-05-30T13:28:45.335Z,20.79
2019-05-30T13:31:14.813Z,20.53
2019-05-30T13:33:44.313Z,20.10
2019-05-30T13:36:13.902Z,20.76
2019-05-30T13:38:43.390Z,20.59
2019-05-30T13:41:14.206Z,20.46
2019-05-30T13:43:43.732Z,19.05
2019-05-30T13:46:13.215Z,18.79
2019-05-30T13:48:42.707Z,18.45
2019-05-30T13:51:12.194Z,18.89
2019-05-30T13:53:42.804Z,19.19
2019-05-30T13:56:12.299Z,19.14
2019-05-30T13:58:41.793Z,19.02
2019-05-30T14:01:13.874Z,19.00
2019-05-30T14:03:42.489Z,19.84
2019-05-30T14:06:11.972Z,20.24
2019-05-30T14:08:42.210Z,20.64
2019-05-30T14:11:11.728Z,20.78
2019-05-30T14:13:41.293Z,19.45
2019-05-30T14:16:11.059Z,18.75
2019-05-30T14:18:40.642Z,19.17
2019-05-30T14:21:11.478Z,19.29
2019-05-30T14:23:41.115Z,19.41
2019-05-30T14:26:11.610Z,19.19
2019-05-30T14:28:41.164Z,19.83
2019-05-30T14:31:11.904Z,19.83
2019-05-30T14:33:41.850Z,19.94
2019-05-30T14:36:14.247Z,19.24
2019-05-30T14:38:57.294Z,19.01
2019-05-30T14:41:13.754Z,18.86
2019-05-30T14:43:43.245Z,18.30
2019-05-30T14:46:12.749Z,17.37
2019-05-30T14:48:42.232Z,17.90
2019-05-30T14:51:12.841Z,18.55
2019-05-30T14:53:42.486Z,18.96
2019-05-30T14:56:13.362Z,18.90
2019-05-30T14:58:43.023Z,19.01
2019-05-30T15:01:13.365Z,18.64
2019-05-30T15:03:42.979Z,18.10
2019-05-30T15:06:15.681Z,17.45
2019-05-30T15:09:15.164Z,17.67
2019-05-30T15:11:34.309Z,17.84
2019-05-30T15:14:04.604Z,17.78
2019-05-30T15:16:34.143Z,17.81
2019-05-30T15:19:03.727Z,18.20
2019-05-30T15:21:33.194Z,17.88
2019-05-30T15:24:02.727Z,18.13
2019-05-30T15:26:32.202Z,18.68
2019-05-30T15:29:01.696Z,19.17
2019-05-30T15:31:31.185Z,19.07
2019-05-30T15:34:00.664Z,18.38
2019-05-30T15:36:30.178Z,18.14
2019-05-30T15:38:59.644Z,18.55
2019-05-30T15:41:29.118Z,18.86
2019-05-30T15:43:58.627Z,19.38
2019-05-30T15:46:28.115Z,19.49
2019-05-30T15:48:58.157Z,19.89
2019-05-30T15:51:27.628Z,19.49
2019-05-30T15:53:57.177Z,19.13
2019-05-30T15:56:26.691Z,19.28
2019-05-30T15:58:56.168Z,19.48
2019-05-30T16:01:26.376Z,19.91
2019-05-30T16:03:55.879Z,19.18
2019-05-30T16:06:25.523Z,18.87
2019-05-30T16:08:55.010Z,18.67
2019-05-30T16:11:24.493Z,18.48
2019-05-30T16:13:54.580Z,18.38
2019-05-30T16:16:38.849Z,18.60
2019-05-30T16:18:55.328Z,18.50
2019-05-30T16:21:24.809Z,18.35
2019-05-30T16:23:54.302Z,18.38
2019-05-30T16:26:23.794Z,18.31
2019-05-30T16:28:53.305Z,18.31
2019-05-30T16:31:22.779Z,18.45
2019-05-30T16:33:52.273Z,18.38
2019-05-30T16:36:22.537Z,18.32
2019-05-30T16:38:52.789Z,18.41
2019-05-30T16:41:22.582Z,18.02
2019-05-30T16:43:52.113Z,18.25
2019-05-30T16:46:22.736Z,18.64
2019-05-30T16:48:52.261Z,18.64
2019-05-30T16:51:23.511Z,18.94
2019-05-30T16:53:53.127Z,18.98
2019-05-30T16:56:23.567Z,18.65
2019-05-30T16:58:53.161Z,18.42
2019-05-30T17:01:23.998Z,18.08
2019-05-30T17:03:53.711Z,18.09
2019-05-30T17:06:23.209Z,17.76
2019-05-30T17:08:52.689Z,17.70
2019-05-30T17:11:23.224Z,17.75
2019-05-30T17:13:52.956Z,17.74
2019-05-30T17:16:22.460Z,17.97
2019-05-30T17:18:52.322Z,17.90
2019-05-30T17:21:22.725Z,17.76
2019-05-30T17:23:52.268Z,17.90
2019-05-30T17:26:21.750Z,17.82
2019-05-30T17:28:51.242Z,17.73
2019-05-30T17:31:21.866Z,17.73
2019-05-30T17:33:51.404Z,17.80
2019-05-30T17:36:22.062Z,17.95
2019-05-30T17:38:51.661Z,17.65
2019-05-30T17:41:21.138Z,17.72
2019-05-30T17:43:50.639Z,17.42
2019-05-30T17:46:21.254Z,17.37
2019-05-30T17:48:50.793Z,17.28
2019-05-30T17:51:20.291Z,17.14
2019-05-30T17:53:51.092Z,17.01
2019-05-30T17:56:21.949Z,16.83
2019-05-30T17:58:51.524Z,16.66
2019-05-30T18:01:22.175Z,16.57
2019-05-30T18:03:51.805Z,16.52
2019-05-30T18:06:22.285Z,16.43
2019-05-30T18:08:51.748Z,16.32
2019-05-30T18:11:21.236Z,16.38
2019-05-30T18:13:50.743Z,16.25
2019-05-30T18:16:21.089Z,16.22
2019-05-30T18:18:50.595Z,16.14
2019-05-30T18:21:21.148Z,15.97
2019-05-30T18:23:50.759Z,16.00
2019-05-30T18:26:21.371Z,15.76
2019-05-30T18:28:51.008Z,15.67
2019-05-30T18:31:21.785Z,15.45
2019-05-30T18:33:51.369Z,15.05
2019-05-30T18:36:22.205Z,14.95
2019-05-30T18:38:51.775Z,14.79
2019-05-30T18:41:22.692Z,14.61
2019-05-30T18:43:52.171Z,14.48
2019-05-30T18:46:22.926Z,13.83
2019-05-30T18:48:52.522Z,13.26
2019-05-30T18:51:22.033Z,12.90
2019-05-30T18:53:52.369Z,12.78
2019-05-30T18:56:21.861Z,12.56
2019-05-30T18:58:51.353Z,12.15
2019-05-30T19:01:20.831Z,12.08
2019-05-30T19:03:50.321Z,11.78
2019-05-30T19:06:20.635Z,11.56
2019-05-30T19:08:50.135Z,11.39
2019-05-30T19:11:27.992Z,11.27
2019-05-30T19:13:50.813Z,11.69
2019-05-30T19:16:20.300Z,11.99
2019-05-30T19:18:49.780Z,11.55
2019-05-30T19:21:19.272Z,11.73
2019-05-30T19:23:48.769Z,11.61
2019-05-30T19:26:18.264Z,11.49
2019-05-30T19:28:47.739Z,11.47
2019-05-30T19:31:17.242Z,11.22
2019-05-30T19:33:46.714Z,11.09
2019-05-30T19:36:16.214Z,10.85
2019-05-30T19:38:45.699Z,11.11
2019-05-30T19:41:15.203Z,11.06
2019-05-30T19:43:45.226Z,10.97
2019-05-30T19:46:14.724Z,11.28
2019-05-30T19:48:44.225Z,11.17
2019-05-30T19:51:13.724Z,10.77
2019-05-30T19:53:43.213Z,10.58
2019-05-30T19:56:13.498Z,10.78
2019-05-30T19:58:43.000Z,10.59
2019-05-30T20:01:12.489Z,10.90
2019-05-30T20:03:46.746Z,10.55
2019-05-30T20:06:13.202Z,10.18
2019-05-30T20:08:54.554Z,10.43
2019-05-30T20:11:13.991Z,10.35
2019-05-30T20:13:43.505Z,9.86
2019-05-30T20:16:12.982Z,9.69
2019-05-30T20:18:42.465Z,9.52
2019-05-30T20:21:11.952Z,9.40
2019-05-30T20:23:52.765Z,9.42
2019-05-30T20:26:12.630Z,9.31
2019-05-30T20:28:42.979Z,9.29
2019-05-30T20:31:12.487Z,9.31
2019-05-30T20:33:42.650Z,9.32
2019-05-30T20:36:12.712Z,9.32
2019-05-30T20:38:42.909Z,9.32
2019-05-30T20:41:12.439Z,9.32
2019-05-30T20:43:43.049Z,9.33
2019-05-30T20:46:22.773Z,9.44
2019-05-30T20:48:45.038Z,10.09
2019-05-30T20:51:21.187Z,10.25
2019-05-30T20:53:47.648Z,10.39
2019-05-30T20:56:17.182Z,10.44
2019-05-30T20:58:46.730Z,10.53
2019-05-30T21:01:16.229Z,10.58
2019-05-30T21:03:45.925Z,10.55
2019-05-30T21:06:15.453Z,10.54
2019-05-30T21:08:47.520Z,10.52
2019-05-30T21:11:17.304Z,10.46
2019-05-30T21:13:49.947Z,10.47
2019-05-30T21:16:22.284Z,10.41
2019-05-30T21:18:53.210Z,10.24
2019-05-30T21:21:22.678Z,9.89
2019-05-30T21:23:52.167Z,9.63
2019-05-30T21:26:21.640Z,9.43
2019-05-30T21:28:51.145Z,9.27
2019-05-30T21:31:20.653Z,9.07
2019-05-30T21:33:51.055Z,9.05
2019-05-30T21:36:20.662Z,8.95
2019-05-30T21:38:50.140Z,8.91
2019-05-30T21:41:19.615Z,8.88
2019-05-30T21:43:49.099Z,8.95
2019-05-30T21:46:19.041Z,8.82
2019-05-30T21:48:49.083Z,8.76
2019-05-30T21:51:18.578Z,8.89
2019-05-30T21:53:48.062Z,8.86
2019-05-30T21:56:17.536Z,8.64
2019-05-30T21:58:48.316Z,8.53
2019-05-30T22:01:28.142Z,8.50
2019-05-30T22:03:57.964Z,8.53
2019-05-30T22:06:27.526Z,8.90
2019-05-30T22:08:57.066Z,8.54
2019-05-30T22:11:26.619Z,8.35
2019-05-30T22:13:56.110Z,8.28
2019-05-30T22:16:26.084Z,8.26
2019-05-30T22:18:55.575Z,8.19
2019-05-30T22:21:25.047Z,8.12
2019-05-30T22:23:54.531Z,8.36
2019-05-30T22:26:24.076Z,8.67
2019-05-30T22:28:54.103Z,8.51
2019-05-30T22:31:23.658Z,8.27
2019-05-30T22:33:53.342Z,8.35
2019-05-30T22:36:22.886Z,8.34
2019-05-30T22:38:53.165Z,8.17
2019-05-30T22:41:23.126Z,8.05
2019-05-30T22:43:53.011Z,8.38
2019-05-30T22:46:22.597Z,8.45
2019-05-30T22:48:52.914Z,8.27
2019-05-30T22:51:22.567Z,8.16
2019-05-30T22:53:53.210Z,8.13
2019-05-30T22:56:22.787Z,8.11
2019-05-30T22:58:52.278Z,8.08
2019-05-30T23:01:21.760Z,8.08
2019-05-30T23:03:52.192Z,8.08
2019-05-30T23:06:22.162Z,8.08
2019-05-30T23:08:52.578Z,8.16
2019-05-30T23:11:22.121Z,8.18
2019-05-30T23:13:51.985Z,8.23
2019-05-30T23:16:21.489Z,8.35
2019-05-30T23:18:51.033Z,8.41
2019-05-30T23:21:21.116Z,8.60
2019-05-30T23:23:51.868Z,8.31
2019-05-30T23:26:21.676Z,8.16
2019-05-30T23:28:51.850Z,8.15
2019-05-30T23:31:21.336Z,8.51
2019-05-30T23:33:50.813Z,8.37
2019-05-30T23:36:20.296Z,8.16
2019-05-30T23:38:50.738Z,8.10
2019-05-30T23:41:20.266Z,8.03
2019-05-30T23:44:01.897Z,8.33
2019-05-30T23:46:20.951Z,8.29
2019-05-30T23:48:51.595Z,8.21
2019-05-30T23:51:21.056Z,8.21
2019-05-30T23:53:50.545Z,8.13
2019-05-30T23:56:20.023Z,8.13
2019-05-30T23:58:50.537Z,8.50
